createdAt,value
2023-02-09T00:01:22.671Z,84.50
2023-02-09T00:03:50.094Z,83.90
2023-02-09T00:06:20.396Z,84.20
2023-02-09T00:08:47.301Z,83.50
2023-02-09T00:11:20.518Z,83.80
2023-02-09T00:13:47.353Z,84.60
2023-02-09T00:16:14.379Z,87.40
2023-02-09T00:18:41.406Z,88.30
2023-02-09T00:21:11.221Z,84.30
2023-02-09T00:23:40.992Z,81.90
2023-02-09T00:26:11.873Z,79.90
2023-02-09T00:28:38.779Z,76.10
2023-02-09T00:31:10.837Z,76.60
2023-02-09T00:33:38.364Z,76.50
2023-02-09T00:36:10.988Z,77.00
2023-02-09T00:38:38.010Z,77.70
2023-02-09T00:41:05.330Z,77.00
2023-02-09T00:43:32.545Z,77.70
2023-02-09T00:45:59.512Z,78.90
2023-02-09T00:48:26.550Z,80.50
2023-02-09T00:50:54.001Z,78.10
2023-02-09T00:53:21.655Z,77.00
2023-02-09T00:55:49.039Z,71.80
2023-02-09T00:58:16.473Z,66.80
2023-02-09T01:00:43.771Z,63.40
2023-02-09T01:03:11.005Z,63.60
2023-02-09T01:05:42.425Z,62.90
2023-02-09T01:08:09.641Z,62.20
2023-02-09T01:10:38.113Z,61.90
2023-02-09T01:13:05.603Z,60.90
2023-02-09T01:15:32.536Z,60.70
2023-02-09T01:17:59.717Z,60.40
2023-02-09T01:20:27.439Z,60.50
2023-02-09T01:22:54.463Z,61.00
2023-02-09T01:25:21.686Z,62.70
2023-02-09T01:27:48.590Z,63.70
2023-02-09T01:30:15.671Z,67.10
2023-02-09T01:32:42.893Z,67.90
2023-02-09T01:35:10.676Z,70.00
2023-02-09T01:37:38.024Z,69.90
2023-02-09T01:40:06.102Z,68.60
2023-02-09T01:42:33.222Z,67.80
2023-02-09T01:45:17.309Z,69.00
2023-02-09T01:47:50.144Z,71.30
2023-02-09T01:50:18.193Z,70.00
2023-02-09T01:52:46.809Z,69.90
2023-02-09T01:55:17.167Z,70.40
2023-02-09T01:57:50.813Z,71.20
2023-02-09T02:00:19.913Z,70.40
2023-02-09T15:12:26.954Z,41.80
2023-02-09T15:14:58.677Z,41.30
2023-02-09T15:17:28.159Z,41.70
2023-02-09T15:19:57.185Z,40.70
2023-02-09T15:22:24.708Z,40.10
2023-02-09T15:24:54.592Z,40.80
2023-02-09T15:27:24.767Z,39.90
2023-02-09T15:29:52.481Z,40.10
2023-02-09T15:32:21.156Z,40.10
2023-02-09T15:34:48.588Z,40.70
2023-02-09T15:37:33.592Z,40.30
2023-02-09T15:40:10.754Z,40.20
2023-02-09T15:42:56.117Z,41.00
2023-02-09T15:45:43.867Z,41.40
2023-02-09T15:48:11.279Z,41.60
2023-02-09T15:50:44.675Z,41.40
2023-02-09T15:53:18.802Z,41.60
2023-02-09T15:55:46.514Z,41.10
2023-02-09T15:58:17.504Z,41.80
2023-02-09T16:00:44.781Z,41.30
2023-02-09T16:03:20.052Z,41.60
2023-02-09T16:05:49.847Z,40.80
2023-02-09T16:08:23.742Z,42.10
2023-02-09T16:10:51.246Z,41.10
2023-02-09T16:13:19.663Z,41.60
2023-02-09T16:15:47.480Z,42.00
2023-02-09T16:18:14.607Z,43.40
2023-02-09T16:20:47.040Z,42.10
2023-02-09T16:23:21.343Z,42.70
2023-02-09T16:25:53.541Z,41.40
2023-02-09T16:28:21.793Z,42.20
2023-02-09T16:30:54.621Z,42.40
2023-02-09T16:33:23.850Z,42.70
2023-02-09T16:35:59.933Z,43.30
2023-02-09T16:38:28.138Z,43.60
2023-02-09T16:40:55.763Z,43.70
2023-02-09T16:43:23.101Z,43.90
2023-02-09T16:46:02.922Z,44.00
2023-02-09T16:48:32.228Z,44.30
2023-02-09T16:50:59.436Z,44.30
2023-02-09T16:53:35.120Z,44.70
2023-02-09T16:56:04.918Z,45.20
2023-02-09T16:58:31.937Z,46.20
2023-02-09T17:00:59.081Z,47.10
2023-02-09T17:03:35.929Z,47.50
2023-02-09T17:06:03.202Z,47.70
2023-02-09T17:08:32.860Z,47.90
2023-02-09T17:11:01.700Z,48.40
2023-02-09T17:13:31.178Z,49.30
2023-02-09T17:16:06.684Z,49.50
2023-02-09T17:18:42.414Z,50.70
2023-02-09T17:21:22.218Z,49.80
2023-02-09T17:23:49.520Z,49.60
2023-02-09T17:26:16.408Z,49.70
2023-02-09T17:28:43.365Z,50.10
2023-02-09T17:31:18.300Z,50.50
2023-02-09T17:33:48.047Z,50.20
2023-02-09T17:36:31.124Z,50.70
2023-02-09T17:39:00.177Z,51.70
2023-02-09T17:41:33.397Z,51.60
2023-02-09T17:47:03.513Z,53.10
2023-02-09T17:49:30.420Z,52.30
2023-02-09T17:51:57.276Z,52.50
2023-02-09T17:54:24.157Z,53.80
2023-02-09T17:56:51.082Z,53.70
2023-02-09T17:59:20.375Z,54.60
2023-02-09T18:01:51.776Z,54.50
2023-02-09T18:04:22.556Z,54.30
2023-02-09T18:06:49.589Z,54.80
2023-02-09T18:09:16.521Z,56.10
2023-02-09T18:11:52.205Z,57.60
2023-02-09T18:14:20.813Z,57.40
2023-02-09T18:16:48.215Z,57.40
2023-02-09T18:19:16.103Z,57.10
2023-02-09T18:21:50.569Z,57.00
2023-02-09T18:24:19.089Z,56.80
2023-02-09T18:26:47.871Z,56.70
2023-02-09T18:29:14.798Z,56.90
2023-02-09T18:31:41.748Z,57.00
2023-02-09T18:34:09.829Z,57.10
2023-02-09T18:36:37.082Z,59.00
2023-02-09T18:39:04.250Z,58.90
2023-02-09T18:41:31.503Z,58.90
2023-02-09T18:43:58.946Z,58.70
2023-02-09T18:46:27.107Z,59.00
2023-02-09T18:48:54.750Z,59.20
2023-02-09T18:51:22.316Z,59.70
2023-02-09T18:53:51.251Z,60.70
2023-02-09T18:56:22.719Z,60.20
2023-02-09T18:58:50.511Z,60.20
2023-02-09T19:01:20.680Z,60.60
2023-02-09T19:03:51.589Z,61.20
2023-02-09T19:06:20.562Z,61.20
2023-02-09T19:08:48.355Z,60.70
2023-02-09T19:11:22.012Z,60.40
2023-02-09T19:14:11.107Z,60.50
2023-02-09T19:16:38.203Z,60.90
2023-02-09T19:19:05.362Z,60.80
2023-02-09T19:21:32.603Z,60.80
2023-02-09T19:23:59.549Z,61.60
2023-02-09T19:26:26.518Z,61.80
2023-02-09T19:28:55.785Z,62.20
2023-02-09T19:31:22.688Z,62.70
2023-02-09T19:33:49.493Z,64.50
2023-02-09T19:36:16.380Z,66.10
2023-02-09T19:38:43.343Z,69.90
2023-02-09T19:41:12.674Z,71.20
2023-02-09T19:43:42.696Z,72.70
2023-02-09T19:46:10.387Z,72.80
2023-02-09T19:48:40.926Z,74.50
2023-02-09T19:51:08.838Z,77.40
2023-02-09T19:53:36.126Z,76.60
2023-02-09T19:56:03.082Z,75.00
2023-02-09T19:58:30.458Z,73.80
2023-02-09T20:00:57.442Z,72.80
2023-02-09T20:03:24.815Z,74.00
2023-02-09T20:05:53.320Z,72.80
2023-02-09T20:08:20.695Z,71.80
2023-02-09T20:10:48.010Z,71.30
2023-02-09T20:13:15.777Z,70.80
2023-02-09T20:15:44.044Z,70.50
2023-02-09T20:18:13.450Z,70.40
2023-02-09T20:20:43.547Z,72.40
2023-02-09T20:23:10.597Z,72.80
2023-02-09T20:25:42.923Z,73.30
2023-02-09T20:28:13.628Z,74.00
2023-02-09T20:30:42.357Z,76.10
2023-02-09T20:33:10.227Z,79.20
2023-02-09T20:35:41.630Z,83.00
2023-02-09T20:38:09.037Z,86.40
2023-02-09T20:40:41.067Z,84.30
2023-02-09T20:43:26.742Z,82.70
2023-02-09T20:46:12.146Z,82.10
2023-02-09T20:48:39.123Z,81.00
2023-02-09T20:51:06.141Z,83.00
2023-02-09T20:53:33.207Z,83.40
2023-02-09T20:56:00.130Z,85.90
2023-02-09T20:58:26.975Z,84.50
2023-02-09T21:00:53.909Z,83.90
2023-02-09T21:03:20.834Z,83.10
2023-02-09T21:05:47.652Z,82.50
2023-02-09T21:08:14.538Z,81.70
2023-02-09T21:10:41.428Z,81.10
2023-02-09T21:13:09.612Z,81.90
2023-02-09T21:15:41.657Z,81.40
2023-02-09T21:18:08.946Z,84.20
2023-02-09T21:20:35.951Z,83.80
2023-02-09T21:23:03.369Z,82.30
2023-02-09T21:25:30.599Z,81.30
2023-02-09T21:28:01.865Z,80.60
2023-02-09T21:30:29.320Z,81.70
2023-02-09T21:32:56.935Z,81.80
2023-02-09T21:35:23.794Z,83.30
2023-02-09T21:37:51.007Z,83.70
2023-02-09T21:40:20.400Z,83.40
2023-02-09T21:42:49.269Z,83.00
2023-02-09T21:45:16.162Z,83.10
2023-02-09T21:47:43.234Z,86.10
2023-02-09T21:50:12.952Z,85.60
2023-02-09T21:52:39.904Z,86.30
2023-02-09T21:55:08.423Z,88.20
2023-02-09T21:57:36.215Z,87.30
2023-02-09T22:00:05.450Z,86.80
2023-02-09T22:02:32.532Z,85.40
2023-02-09T22:04:59.474Z,86.20
2023-02-09T22:07:26.474Z,88.20
2023-02-09T22:09:53.627Z,89.10
2023-02-09T22:12:20.679Z,88.50
2023-02-09T22:14:47.532Z,88.20
2023-02-09T22:17:14.500Z,87.20
2023-02-09T22:19:41.437Z,86.90
2023-02-09T22:22:10.262Z,86.10
2023-02-09T22:24:37.589Z,86.30
2023-02-09T22:27:05.126Z,86.00
2023-02-09T22:29:33.358Z,85.50
2023-02-09T22:32:00.434Z,84.40
2023-02-09T22:34:27.240Z,85.00
2023-02-09T22:36:54.428Z,84.80
2023-02-09T22:39:21.825Z,85.10
2023-02-09T22:41:48.753Z,85.50
2023-02-09T22:44:17.127Z,89.10
2023-02-09T22:46:45.778Z,89.30
2023-02-09T22:49:19.223Z,89.00
2023-02-09T22:51:48.099Z,89.70
2023-02-09T22:54:17.015Z,90.20
2023-02-09T22:56:44.404Z,91.10
2023-02-09T22:59:12.994Z,94.20
2023-02-09T23:01:40.163Z,94.70
2023-02-09T23:04:07.218Z,93.30
2023-02-09T23:06:34.468Z,92.40
2023-02-09T23:09:04.314Z,91.70
2023-02-09T23:11:32.005Z,91.20
2023-02-09T23:14:09.176Z,91.30
2023-02-09T23:16:38.311Z,91.70
2023-02-09T23:19:08.822Z,91.60
2023-02-09T23:21:38.749Z,91.90
2023-02-09T23:24:06.162Z,91.70
2023-02-09T23:26:33.180Z,92.40
2023-02-09T23:29:02.053Z,92.80
2023-02-09T23:31:29.327Z,92.60
2023-02-09T23:33:56.571Z,92.30
2023-02-09T23:36:26.222Z,92.00
2023-02-09T23:38:58.426Z,92.10
2023-02-09T23:41:26.248Z,92.00
2023-02-09T23:43:54.160Z,93.20
2023-02-09T23:46:23.919Z,93.90
2023-02-09T23:48:53.227Z,95.40
2023-02-09T23:51:24.327Z,96.70
2023-02-09T23:53:51.121Z,95.30
2023-02-09T23:56:18.414Z,94.70
2023-02-09T23:58:47.287Z,94.20
